sensor_id;sensor_type;location;lat;lon;timestamp;pressure;altitude;pressure_sealevel;temperature;humidity
28911;BME280;16028;42.642;23.310;2023-10-19T00:00:49;94104.28;;;8.58;100.00
28911;BME280;16028;42.642;23.310;2023-10-19T00:03:17;94104.00;;;8.61;100.00
28911;BME280;16028;42.642;23.310;2023-10-19T00:05:43;94097.84;;;8.62;100.00
28911;BME280;16028;42.642;23.310;2023-10-19T00:08:12;94093.19;;;8.56;100.00
28911;BME280;16028;42.642;23.310;2023-10-19T00:10:43;94092.53;;;8.54;100.00
28911;BME280;16028;42.642;23.310;2023-10-19T00:13:11;94081.06;;;8.56;100.00
28911;BME280;16028;42.642;23.310;2023-10-19T00:15:39;94085.31;;;8.57;100.00
28911;BME280;16028;42.642;23.310;2023-10-19T00:18:12;94082.53;;;8.49;100.00
28911;BME280;16028;42.642;23.310;2023-10-19T00:20:49;94079.44;;;8.45;100.00
28911;BME280;16028;42.642;23.310;2023-10-19T00:23:20;94083.91;;;8.43;100.00
28911;BME280;16028;42.642;23.310;2023-10-19T00:25:54;94075.88;;;8.46;100.00
28911;BME280;16028;42.642;23.310;2023-10-19T00:28:20;94070.69;;;8.46;100.00
28911;BME280;16028;42.642;23.310;2023-10-19T00:30:49;94075.75;;;8.48;100.00
28911;BME280;16028;42.642;23.310;2023-10-19T00:33:18;94062.91;;;8.46;100.00
28911;BME280;16028;42.642;23.310;2023-10-19T00:35:45;94070.81;;;8.45;100.00
28911;BME280;16028;42.642;23.310;2023-10-19T00:38:26;94063.31;;;8.42;100.00
28911;BME280;16028;42.642;23.310;2023-10-19T00:41:05;94061.41;;;8.44;100.00
28911;BME280;16028;42.642;23.310;2023-10-19T00:43:38;94059.47;;;8.46;100.00
28911;BME280;16028;42.642;23.310;2023-10-19T00:46:11;94051.16;;;8.42;100.00
28911;BME280;16028;42.642;23.310;2023-10-19T00:48:48;94055.28;;;8.45;100.00
28911;BME280;16028;42.642;23.310;2023-10-19T00:51:17;94056.63;;;8.49;100.00
28911;BME280;16028;42.642;23.310;2023-10-19T00:54:05;94058.44;;;8.48;100.00
28911;BME280;16028;42.642;23.310;2023-10-19T00:56:36;94056.09;;;8.45;100.00
28911;BME280;16028;42.642;23.310;2023-10-19T00:59:06;94056.59;;;8.39;100.00
28911;BME280;16028;42.642;23.310;2023-10-19T01:01:41;94061.25;;;8.36;100.00
28911;BME280;16028;42.642;23.310;2023-10-19T01:04:11;94056.09;;;8.36;100.00
28911;BME280;16028;42.642;23.310;2023-10-19T01:06:45;94056.19;;;8.34;100.00
28911;BME280;16028;42.642;23.310;2023-10-19T01:09:26;94051.13;;;8.33;100.00
28911;BME280;16028;42.642;23.310;2023-10-19T01:11:53;94054.28;;;8.36;100.00
28911;BME280;16028;42.642;23.310;2023-10-19T01:14:26;94054.72;;;8.41;100.00
28911;BME280;16028;42.642;23.310;2023-10-19T01:16:56;94059.63;;;8.44;100.00
28911;BME280;16028;42.642;23.310;2023-10-19T01:19:23;94060.47;;;8.45;100.00
28911;BME280;16028;42.642;23.310;2023-10-19T01:21:52;94070.81;;;8.45;100.00
28911;BME280;16028;42.642;23.310;2023-10-19T01:24:26;94067.25;;;8.46;100.00
28911;BME280;16028;42.642;23.310;2023-10-19T01:27:05;94065.66;;;8.55;100.00
28911;BME280;16028;42.642;23.310;2023-10-19T01:29:34;94053.25;;;8.48;100.00
28911;BME280;16028;42.642;23.310;2023-10-19T01:32:03;94049.28;;;8.44;100.00
28911;BME280;16028;42.642;23.310;2023-10-19T01:34:33;94056.09;;;8.45;100.00
28911;BME280;16028;42.642;23.310;2023-10-19T01:37:01;94061.00;;;8.48;100.00
28911;BME280;16028;42.642;23.310;2023-10-19T01:39:31;94055.13;;;8.56;100.00
28911;BME280;16028;42.642;23.310;2023-10-19T01:41:58;94058.16;;;8.61;100.00
28911;BME280;16028;42.642;23.310;2023-10-19T01:44:24;94053.38;;;8.66;100.00
28911;BME280;16028;42.642;23.310;2023-10-19T01:46:51;94066.47;;;8.65;100.00
28911;BME280;16028;42.642;23.310;2023-10-19T01:49:17;94060.59;;;8.63;100.00
28911;BME280;16028;42.642;23.310;2023-10-19T01:51:51;94063.63;;;8.68;100.00
28911;BME280;16028;42.642;23.310;2023-10-19T01:54:17;94061.72;;;8.70;100.00
28911;BME280;16028;42.642;23.310;2023-10-19T01:56:50;94065.13;;;8.70;100.00
28911;BME280;16028;42.642;23.310;2023-10-19T01:59:16;94055.44;;;8.72;100.00
28911;BME280;16028;42.642;23.310;2023-10-19T02:01:43;94058.47;;;8.77;100.00
28911;BME280;16028;42.642;23.310;2023-10-19T02:04:11;94054.34;;;8.84;100.00
28911;BME280;16028;42.642;23.310;2023-10-19T02:06:39;94054.50;;;9.02;100.00
28911;BME280;16028;42.642;23.310;2023-10-19T02:09:07;94051.47;;;8.87;100.00
28911;BME280;16028;42.642;23.310;2023-10-19T02:11:43;94052.44;;;8.86;100.00
28911;BME280;16028;42.642;23.310;2023-10-19T02:14:13;94058.72;;;8.84;100.00
28911;BME280;16028;42.642;23.310;2023-10-19T02:16:40;94057.09;;;8.83;100.00
28911;BME280;16028;42.642;23.310;2023-10-19T02:19:07;94064.88;;;8.83;100.00
28911;BME280;16028;42.642;23.310;2023-10-19T02:21:34;94067.59;;;8.81;100.00
28911;BME280;16028;42.642;23.310;2023-10-19T02:24:05;94067.47;;;8.83;100.00
28911;BME280;16028;42.642;23.310;2023-10-19T02:26:33;94062.28;;;8.83;100.00
28911;BME280;16028;42.642;23.310;2023-10-19T02:28:59;94061.84;;;8.87;100.00
28911;BME280;16028;42.642;23.310;2023-10-19T02:31:27;94059.81;;;8.91;100.00
28911;BME280;16028;42.642;23.310;2023-10-19T02:33:54;94056.94;;;8.94;100.00
28911;BME280;16028;42.642;23.310;2023-10-19T02:36:25;94056.81;;;8.95;100.00
28911;BME280;16028;42.642;23.310;2023-10-19T02:38:54;94056.66;;;8.97;100.00
28911;BME280;16028;42.642;23.310;2023-10-19T02:41:25;94058.19;;;8.90;100.00
28911;BME280;16028;42.642;23.310;2023-10-19T02:43:52;94056.94;;;8.84;100.00
28911;BME280;16028;42.642;23.310;2023-10-19T02:46:28;94054.63;;;8.81;100.00
28911;BME280;16028;42.642;23.310;2023-10-19T02:48:54;94053.50;;;8.74;100.00
28911;BME280;16028;42.642;23.310;2023-10-19T02:51:27;94057.47;;;8.69;100.00
28911;BME280;16028;42.642;23.310;2023-10-19T02:53:53;94056.81;;;8.67;100.00
28911;BME280;16028;42.642;23.310;2023-10-19T02:56:20;94055.16;;;8.66;100.00
28911;BME280;16028;42.642;23.310;2023-10-19T02:58:49;94049.28;;;8.64;100.00
28911;BME280;16028;42.642;23.310;2023-10-19T03:01:17;94052.84;;;8.63;100.00
28911;BME280;16028;42.642;23.310;2023-10-19T03:03:50;94050.66;;;8.58;100.00
28911;BME280;16028;42.642;23.310;2023-10-19T03:06:19;94043.94;;;8.56;100.00
28911;BME280;16028;42.642;23.310;2023-10-19T03:08:47;94043.28;;;8.54;100.00
28911;BME280;16028;42.642;23.310;2023-10-19T03:11:15;94047.50;;;8.55;100.00
28911;BME280;16028;42.642;23.310;2023-10-19T03:13:42;94046.53;;;8.56;100.00
28911;BME280;16028;42.642;23.310;2023-10-19T03:16:09;94044.78;;;8.56;100.00
28911;BME280;16028;42.642;23.310;2023-10-19T03:18:36;94042.88;;;8.58;100.00
28911;BME280;16028;42.642;23.310;2023-10-19T03:21:04;94046.16;;;8.60;100.00
28911;BME280;16028;42.642;23.310;2023-10-19T03:23:31;94045.59;;;8.57;100.00
28911;BME280;16028;42.642;23.310;2023-10-19T03:26:00;94050.66;;;8.58;100.00
28911;BME280;16028;42.642;23.310;2023-10-19T03:28:59;94042.19;;;8.56;100.00
28911;BME280;16028;42.642;23.310;2023-10-19T03:31:32;94042.44;;;8.53;100.00
28911;BME280;16028;42.642;23.310;2023-10-19T03:34:03;94041.78;;;8.51;100.00
28911;BME280;16028;42.642;23.310;2023-10-19T03:36:33;94047.34;;;8.46;100.00
28911;BME280;16028;42.642;23.310;2023-10-19T03:39:00;94050.06;;;8.35;100.00
28911;BME280;16028;42.642;23.310;2023-10-19T03:41:37;94040.25;;;8.29;100.00
28911;BME280;16028;42.642;23.310;2023-10-19T03:44:07;94046.47;;;8.27;100.00
28911;BME280;16028;42.642;23.310;2023-10-19T03:46:39;94046.59;;;8.25;100.00
28911;BME280;16028;42.642;23.310;2023-10-19T03:49:19;94044.41;;;8.21;100.00
28911;BME280;16028;42.642;23.310;2023-10-19T03:51:47;94042.78;;;8.20;100.00
28911;BME280;16028;42.642;23.310;2023-10-19T03:54:29;94034.72;;;8.13;100.00
28911;BME280;16028;42.642;23.310;2023-10-19T03:56:58;94027.75;;;8.14;100.00
28911;BME280;16028;42.642;23.310;2023-10-19T03:59:31;94031.16;;;8.14;100.00
28911;BME280;16028;42.642;23.310;2023-10-19T04:01:59;94028.44;;;8.16;100.00
28911;BME280;16028;42.642;23.310;2023-10-19T04:04:32;94019.72;;;8.17;100.00
28911;BME280;16028;42.642;23.310;2023-10-19T04:07:01;94026.25;;;8.21;100.00
28911;BME280;16028;42.642;23.310;2023-10-19T04:09:36;94030.78;;;8.19;100.00
28911;BME280;16028;42.642;23.310;2023-10-19T04:12:22;94027.25;;;8.20;100.00
28911;BME280;16028;42.642;23.310;2023-10-19T04:14:49;94030.88;;;8.17;100.00
28911;BME280;16028;42.642;23.310;2023-10-19T04:17:16;94031.59;;;8.19;100.00
28911;BME280;16028;42.642;23.310;2023-10-19T04:19:46;94025.88;;;8.25;100.00
28911;BME280;16028;42.642;23.310;2023-10-19T04:22:15;94027.66;;;8.25;100.00
28911;BME280;16028;42.642;23.310;2023-10-19T04:24:48;94032.00;;;8.24;100.00
28911;BME280;16028;42.642;23.310;2023-10-19T04:27:14;94030.88;;;8.17;100.00
28911;BME280;16028;42.642;23.310;2023-10-19T04:29:47;94024.31;;;8.04;100.00
28911;BME280;16028;42.642;23.310;2023-10-19T04:32:15;94035.47;;;8.04;100.00
28911;BME280;16028;42.642;23.310;2023-10-19T04:34:50;94025.38;;;8.01;100.00
28911;BME280;16028;42.642;23.310;2023-10-19T04:37:18;94028.94;;;8.00;100.00
28911;BME280;16028;42.642;23.310;2023-10-19T04:39:45;94014.72;;;7.94;100.00
28911;BME280;16028;42.642;23.310;2023-10-19T04:42:12;94026.19;;;7.92;100.00
28911;BME280;16028;42.642;23.310;2023-10-19T04:44:39;94023.75;;;7.90;100.00
28911;BME280;16028;42.642;23.310;2023-10-19T04:47:06;94022.75;;;7.91;100.00
28911;BME280;16028;42.642;23.310;2023-10-19T04:49:33;94019.91;;;7.94;100.00
28911;BME280;16028;42.642;23.310;2023-10-19T04:52:00;94012.44;;;8.01;100.00
28911;BME280;16028;42.642;23.310;2023-10-19T04:54:30;94015.47;;;8.06;100.00
28911;BME280;16028;42.642;23.310;2023-10-19T04:56:56;94016.69;;;8.12;100.00
28911;BME280;16028;42.642;23.310;2023-10-19T04:59:25;94018.75;;;8.18;100.00
28911;BME280;16028;42.642;23.310;2023-10-19T05:01:52;94002.81;;;8.22;100.00
28911;BME280;16028;42.642;23.310;2023-10-19T05:04:19;94004.22;;;8.26;100.00
28911;BME280;16028;42.642;23.310;2023-10-19T05:06:46;94005.81;;;8.27;100.00
28911;BME280;16028;42.642;23.310;2023-10-19T05:09:15;94008.00;;;8.22;100.00
28911;BME280;16028;42.642;23.310;2023-10-19T05:11:45;94018.50;;;8.21;100.00
28911;BME280;16028;42.642;23.310;2023-10-19T05:14:13;94010.03;;;8.19;100.00
28911;BME280;16028;42.642;23.310;2023-10-19T05:16:40;94025.31;;;8.22;100.00
28911;BME280;16028;42.642;23.310;2023-10-19T05:19:07;94016.59;;;8.13;100.00
28911;BME280;16028;42.642;23.310;2023-10-19T05:21:35;94024.34;;;8.13;100.00
28911;BME280;16028;42.642;23.310;2023-10-19T05:24:03;94010.44;;;8.14;100.00
28911;BME280;16028;42.642;23.310;2023-10-19T05:26:33;94020.66;;;8.16;100.00
28911;BME280;16028;42.642;23.310;2023-10-19T05:29:01;94009.09;;;8.20;100.00
28911;BME280;16028;42.642;23.310;2023-10-19T05:31:28;94014.00;;;8.23;100.00
28911;BME280;16028;42.642;23.310;2023-10-19T05:33:56;94018.22;;;8.24;100.00
28911;BME280;16028;42.642;23.310;2023-10-19T05:36:23;94014.34;;;8.29;100.00
28911;BME280;16028;42.642;23.310;2023-10-19T05:38:50;94014.75;;;8.34;100.00
28911;BME280;16028;42.642;23.310;2023-10-19T05:41:17;94024.03;;;8.46;100.00
28911;BME280;16028;42.642;23.310;2023-10-19T05:43:46;94032.38;;;8.60;100.00
28911;BME280;16028;42.642;23.310;2023-10-19T05:46:14;94031.16;;;8.64;100.00
28911;BME280;16028;42.642;23.310;2023-10-19T05:48:44;94035.78;;;8.70;100.00
28911;BME280;16028;42.642;23.310;2023-10-19T05:51:11;94033.75;;;8.64;100.00
28911;BME280;16028;42.642;23.310;2023-10-19T05:53:39;94033.75;;;8.64;100.00
28911;BME280;16028;42.642;23.310;2023-10-19T05:56:06;94034.41;;;8.56;100.00
28911;BME280;16028;42.642;23.310;2023-10-19T05:58:33;94037.00;;;8.56;100.00
28911;BME280;16028;42.642;23.310;2023-10-19T06:01:00;94033.56;;;8.56;100.00
28911;BME280;16028;42.642;23.310;2023-10-19T06:03:29;94032.50;;;8.58;100.00
28911;BME280;16028;42.642;23.310;2023-10-19T06:05:56;94037.53;;;8.50;100.00
28911;BME280;16028;42.642;23.310;2023-10-19T06:08:23;94035.50;;;8.54;100.00
28911;BME280;16028;42.642;23.310;2023-10-19T06:10:50;94040.56;;;8.55;100.00
28911;BME280;16028;42.642;23.310;2023-10-19T06:13:17;94033.59;;;8.75;100.00
28911;BME280;16028;42.642;23.310;2023-10-19T06:15:44;94031.69;;;8.77;100.00
28911;BME280;16028;42.642;23.310;2023-10-19T06:18:11;94036.19;;;8.75;100.00
28911;BME280;16028;42.642;23.310;2023-10-19T06:20:44;94038.22;;;8.71;100.00
28911;BME280;16028;42.642;23.310;2023-10-19T06:23:11;94033.75;;;8.64;100.00
28911;BME280;16028;42.642;23.310;2023-10-19T06:25:38;94038.66;;;8.67;100.00
28911;BME280;16028;42.642;23.310;2023-10-19T06:28:08;94041.38;;;8.75;100.00
28911;BME280;16028;42.642;23.310;2023-10-19T06:30:36;94031.97;;;8.83;100.00
28911;BME280;16028;42.642;23.310;2023-10-19T06:33:05;94025.41;;;8.89;100.00
28911;BME280;16028;42.642;23.310;2023-10-19T06:35:33;94027.75;;;8.92;100.00
28911;BME280;16028;42.642;23.310;2023-10-19T06:38:04;94034.41;;;9.04;100.00
28911;BME280;16028;42.642;23.310;2023-10-19T06:40:30;94035.91;;;9.07;100.00
28911;BME280;16028;42.642;23.310;2023-10-19T06:42:58;94042.75;;;9.08;100.00
28911;BME280;16028;42.642;23.310;2023-10-19T06:45:27;94037.00;;;9.14;100.00
28911;BME280;16028;42.642;23.310;2023-10-19T06:47:55;94034.28;;;9.15;100.00
28911;BME280;16028;42.642;23.310;2023-10-19T06:50:23;94025.78;;;9.23;100.00
28911;BME280;16028;42.642;23.310;2023-10-19T06:52:51;94033.72;;;9.31;100.00
28911;BME280;16028;42.642;23.310;2023-10-19T06:55:21;94038.06;;;9.40;100.00
28911;BME280;16028;42.642;23.310;2023-10-19T06:57:49;94024.38;;;9.47;100.00
28911;BME280;16028;42.642;23.310;2023-10-19T07:00:17;94013.69;;;9.60;100.00
28911;BME280;16028;42.642;23.310;2023-10-19T07:02:45;94008.25;;;9.81;100.00
28911;BME280;16028;42.642;23.310;2023-10-19T07:05:13;94010.00;;;9.90;100.00
28911;BME280;16028;42.642;23.310;2023-10-19T07:07:44;94014.09;;;9.92;100.00
28911;BME280;16028;42.642;23.310;2023-10-19T07:10:12;94008.59;;;10.05;100.00
28911;BME280;16028;42.642;23.310;2023-10-19T07:12:43;94022.09;;;10.08;100.00
28911;BME280;16028;42.642;23.310;2023-10-19T07:15:10;94029.09;;;10.08;100.00
28911;BME280;16028;42.642;23.310;2023-10-19T07:17:39;94027.66;;;10.23;100.00
28911;BME280;16028;42.642;23.310;2023-10-19T07:20:07;94026.41;;;10.27;100.00
28911;BME280;16028;42.642;23.310;2023-10-19T07:22:35;94021.28;;;10.35;99.59
28911;BME280;16028;42.642;23.310;2023-10-19T07:25:04;94030.44;;;10.39;99.59
28911;BME280;16028;42.642;23.310;2023-10-19T07:27:31;94029.16;;;10.43;96.44
28911;BME280;16028;42.642;23.310;2023-10-19T07:30:00;94023.41;;;10.49;96.85
28911;BME280;16028;42.642;23.310;2023-10-19T07:32:30;94023.41;;;10.49;95.89
28911;BME280;16028;42.642;23.310;2023-10-19T07:34:58;94018.22;;;10.49;97.56
28911;BME280;16028;42.642;23.310;2023-10-19T07:37:25;94030.63;;;10.55;97.85
28911;BME280;16028;42.642;23.310;2023-10-19T07:39:53;94030.72;;;10.81;93.53
28911;BME280;16028;42.642;23.310;2023-10-19T07:42:22;94026.31;;;10.82;91.13
28911;BME280;16028;42.642;23.310;2023-10-19T07:44:49;94028.97;;;10.72;92.80
28911;BME280;16028;42.642;23.310;2023-10-19T07:47:17;94022.91;;;10.81;93.12
28911;BME280;16028;42.642;23.310;2023-10-19T07:49:43;94034.94;;;10.82;94.02
28911;BME280;16028;42.642;23.310;2023-10-19T07:52:13;94031.97;;;10.77;95.38
28911;BME280;16028;42.642;23.310;2023-10-19T07:54:39;94026.78;;;10.77;96.47
28911;BME280;16028;42.642;23.310;2023-10-19T07:57:06;94032.34;;;11.00;95.24
28911;BME280;16028;42.642;23.310;2023-10-19T07:59:33;94027.59;;;11.13;93.36
28911;BME280;16028;42.642;23.310;2023-10-19T08:02:00;94031.34;;;11.01;95.10
28911;BME280;16028;42.642;23.310;2023-10-19T08:04:30;94034.56;;;10.95;95.22
28911;BME280;16028;42.642;23.310;2023-10-19T08:06:57;94034.13;;;10.99;96.62
28911;BME280;16028;42.642;23.310;2023-10-19T08:09:26;94039.03;;;11.02;94.67
28911;BME280;16028;42.642;23.310;2023-10-19T08:11:57;94036.00;;;11.07;93.75
28911;BME280;16028;42.642;23.310;2023-10-19T08:14:24;94043.84;;;11.15;92.06
28911;BME280;16028;42.642;23.310;2023-10-19T08:16:51;94036.78;;;11.07;92.16
28911;BME280;16028;42.642;23.310;2023-10-19T08:19:18;94030.41;;;11.02;93.91
28911;BME280;16028;42.642;23.310;2023-10-19T08:21:46;94029.81;;;11.08;93.55
28911;BME280;16028;42.642;23.310;2023-10-19T08:24:13;94030.09;;;11.05;94.19
28911;BME280;16028;42.642;23.310;2023-10-19T08:26:43;94028.53;;;11.12;94.12
28911;BME280;16028;42.642;23.310;2023-10-19T08:29:12;94034.78;;;11.19;94.09
28911;BME280;16028;42.642;23.310;2023-10-19T08:31:40;94030.91;;;11.23;93.79
28911;BME280;16028;42.642;23.310;2023-10-19T08:34:07;94032.19;;;11.19;93.89
28911;BME280;16028;42.642;23.310;2023-10-19T08:36:35;94029.88;;;11.16;94.60
28911;BME280;16028;42.642;23.310;2023-10-19T08:39:04;94028.09;;;11.17;94.89
28911;BME280;16028;42.642;23.310;2023-10-19T08:41:31;94036.69;;;11.35;93.63
28911;BME280;16028;42.642;23.310;2023-10-19T08:44:00;94033.94;;;11.36;93.69
28911;BME280;16028;42.642;23.310;2023-10-19T08:46:27;94037.56;;;11.43;92.88
28911;BME280;16028;42.642;23.310;2023-10-19T08:48:55;94034.34;;;11.49;93.48
28911;BME280;16028;42.642;23.310;2023-10-19T08:51:24;94033.28;;;11.60;94.62
28911;BME280;16028;42.642;23.310;2023-10-19T08:53:52;94027.38;;;11.76;94.48
28911;BME280;16028;42.642;23.310;2023-10-19T08:56:24;94028.63;;;11.89;90.07
28911;BME280;16028;42.642;23.310;2023-10-19T08:58:52;94031.41;;;11.96;90.16
28911;BME280;16028;42.642;23.310;2023-10-19T09:01:19;94040.72;;;11.98;90.94
28911;BME280;16028;42.642;23.310;2023-10-19T09:03:50;94030.16;;;12.08;89.48
28911;BME280;16028;42.642;23.310;2023-10-19T09:06:17;94031.88;;;12.25;86.52
28911;BME280;16028;42.642;23.310;2023-10-19T09:08:47;94034.50;;;12.25;86.96
28911;BME280;16028;42.642;23.310;2023-10-19T09:11:14;94015.59;;;12.31;88.74
28911;BME280;16028;42.642;23.310;2023-10-19T09:13:47;94012.69;;;12.42;88.57
28911;BME280;16028;42.642;23.310;2023-10-19T09:16:15;94006.06;;;12.64;84.62
28911;BME280;16028;42.642;23.310;2023-10-19T09:18:42;94007.84;;;12.55;85.71
28911;BME280;16028;42.642;23.310;2023-10-19T09:21:10;94010.63;;;12.62;85.34
28911;BME280;16028;42.642;23.310;2023-10-19T09:23:38;93982.44;;;12.65;85.90
28911;BME280;16028;42.642;23.310;2023-10-19T09:26:05;93992.53;;;12.68;86.24
28911;BME280;16028;42.642;23.310;2023-10-19T09:28:37;93993.72;;;12.82;83.96
28911;BME280;16028;42.642;23.310;2023-10-19T09:31:06;93989.78;;;12.86;82.83
28911;BME280;16028;42.642;23.310;2023-10-19T09:33:35;93991.59;;;12.86;83.77
28911;BME280;16028;42.642;23.310;2023-10-19T09:36:03;93984.06;;;12.99;83.01
28911;BME280;16028;42.642;23.310;2023-10-19T09:38:38;93973.31;;;13.02;83.61
28911;BME280;16028;42.642;23.310;2023-10-19T09:41:10;93976.91;;;13.01;83.88
28911;BME280;16028;42.642;23.310;2023-10-19T09:43:43;93973.78;;;13.05;83.04
28911;BME280;16028;42.642;23.310;2023-10-19T09:46:12;93977.28;;;13.14;80.50
28911;BME280;16028;42.642;23.310;2023-10-19T09:48:47;93969.28;;;13.23;80.95
28911;BME280;16028;42.642;23.310;2023-10-19T09:51:15;93957.03;;;13.24;83.18
28911;BME280;16028;42.642;23.310;2023-10-19T09:53:47;93958.81;;;13.23;83.63
28911;BME280;16028;42.642;23.310;2023-10-19T09:56:19;93957.16;;;13.39;80.80
28911;BME280;16028;42.642;23.310;2023-10-19T09:58:49;93965.31;;;13.44;80.45
28911;BME280;16028;42.642;23.310;2023-10-19T10:01:19;93964.31;;;13.61;77.76
28911;BME280;16028;42.642;23.310;2023-10-19T10:03:49;93950.28;;;13.62;78.89
28911;BME280;16028;42.642;23.310;2023-10-19T10:06:17;93948.28;;;13.64;80.43
28911;BME280;16028;42.642;23.310;2023-10-19T10:08:53;93952.03;;;13.69;79.20
28911;BME280;16028;42.642;23.310;2023-10-19T10:11:22;93956.75;;;13.74;79.07
28911;BME280;16028;42.642;23.310;2023-10-19T10:13:49;93950.72;;;13.73;79.68
28911;BME280;16028;42.642;23.310;2023-10-19T10:16:23;93943.84;;;13.72;79.78
28911;BME280;16028;42.642;23.310;2023-10-19T10:18:54;93948.97;;;14.05;74.34
28911;BME280;16028;42.642;23.310;2023-10-19T10:21:24;93947.88;;;13.91;75.98
28911;BME280;16028;42.642;23.310;2023-10-19T10:23:52;93938.69;;;13.95;76.21
28911;BME280;16028;42.642;23.310;2023-10-19T10:26:21;93940.28;;;14.04;75.12
28911;BME280;16028;42.642;23.310;2023-10-19T10:29:08;93929.91;;;14.35;74.05
28911;BME280;16028;42.642;23.310;2023-10-19T10:31:42;93918.47;;;14.20;74.56
28911;BME280;16028;42.642;23.310;2023-10-19T10:34:10;93909.91;;;14.03;76.03
28911;BME280;16028;42.642;23.310;2023-10-19T10:36:57;93917.09;;;14.40;74.03
28911;BME280;16028;42.642;23.310;2023-10-19T10:39:25;93904.88;;;14.32;75.22
28911;BME280;16028;42.642;23.310;2023-10-19T10:41:55;93903.72;;;14.35;73.79
28911;BME280;16028;42.642;23.310;2023-10-19T10:44:35;93900.47;;;14.25;74.93
28911;BME280;16028;42.642;23.310;2023-10-19T10:47:05;93886.69;;;14.31;77.78
28911;BME280;16028;42.642;23.310;2023-10-19T10:49:35;93874.72;;;14.45;79.72
28911;BME280;16028;42.642;23.310;2023-10-19T10:52:02;93877.03;;;14.62;79.63
28911;BME280;16028;42.642;23.310;2023-10-19T10:54:29;93880.63;;;14.84;75.76
28911;BME280;16028;42.642;23.310;2023-10-19T10:56:56;93880.84;;;14.97;74.71
28911;BME280;16028;42.642;23.310;2023-10-19T10:59:24;93880.94;;;15.04;74.71
28911;BME280;16028;42.642;23.310;2023-10-19T11:01:51;93873.84;;;15.27;70.12
28911;BME280;16028;42.642;23.310;2023-10-19T11:04:19;93863.00;;;15.15;72.94
28911;BME280;16028;42.642;23.310;2023-10-19T11:06:51;93846.19;;;15.24;76.85
28911;BME280;16028;42.642;23.310;2023-10-19T11:09:18;93841.31;;;15.36;73.42
28911;BME280;16028;42.642;23.310;2023-10-19T11:11:46;93846.47;;;15.44;72.61
28911;BME280;16028;42.642;23.310;2023-10-19T11:14:14;93841.44;;;15.57;71.59
28911;BME280;16028;42.642;23.310;2023-10-19T11:16:41;93839.25;;;15.75;66.95
28911;BME280;16028;42.642;23.310;2023-10-19T11:19:08;93827.59;;;15.78;71.54
28911;BME280;16028;42.642;23.310;2023-10-19T11:21:37;93826.94;;;15.91;67.02
28911;BME280;16028;42.642;23.310;2023-10-19T11:24:04;93837.06;;;15.94;66.48
28911;BME280;16028;42.642;23.310;2023-10-19T11:26:39;93816.75;;;16.02;66.08
28911;BME280;16028;42.642;23.310;2023-10-19T11:29:06;93808.19;;;15.94;69.23
28911;BME280;16028;42.642;23.310;2023-10-19T11:31:35;93808.78;;;16.10;67.95
28911;BME280;16028;42.642;23.310;2023-10-19T11:34:05;93802.78;;;16.16;66.87
28911;BME280;16028;42.642;23.310;2023-10-19T11:36:34;93802.94;;;16.29;66.57
28911;BME280;16028;42.642;23.310;2023-10-19T11:39:02;93796.63;;;16.24;67.27
28911;BME280;16028;42.642;23.310;2023-10-19T11:41:33;93798.34;;;16.38;66.19
28911;BME280;16028;42.642;23.310;2023-10-19T11:44:00;93795.28;;;16.34;66.87
28911;BME280;16028;42.642;23.310;2023-10-19T11:46:27;93793.72;;;16.40;65.95
28911;BME280;16028;42.642;23.310;2023-10-19T11:48:54;93786.03;;;16.38;67.58
28911;BME280;16028;42.642;23.310;2023-10-19T11:51:21;93783.41;;;16.38;66.73
28911;BME280;16028;42.642;23.310;2023-10-19T11:53:48;93780.03;;;16.45;72.20
28911;BME280;16028;42.642;23.310;2023-10-19T11:56:16;93774.00;;;16.65;71.88
28911;BME280;16028;42.642;23.310;2023-10-19T11:58:43;93779.59;;;16.83;71.19
28911;BME280;16028;42.642;23.310;2023-10-19T12:01:12;93773.22;;;16.99;71.41
28911;BME280;16028;42.642;23.310;2023-10-19T12:03:39;93775.16;;;17.18;67.69
28911;BME280;16028;42.642;23.310;2023-10-19T12:06:07;93783.72;;;17.27;66.51
28911;BME280;16028;42.642;23.310;2023-10-19T12:08:34;93776.50;;;17.35;65.92
28911;BME280;16028;42.642;23.310;2023-10-19T12:11:01;93769.63;;;17.41;66.87
28911;BME280;16028;42.642;23.310;2023-10-19T12:13:31;93767.03;;;17.48;67.36
28911;BME280;16028;42.642;23.310;2023-10-19T12:15:58;93771.91;;;17.91;59.47
28911;BME280;16028;42.642;23.310;2023-10-19T12:18:24;93762.44;;;17.56;62.12
28911;BME280;16028;42.642;23.310;2023-10-19T12:20:54;93756.69;;;17.46;63.53
28911;BME280;16028;42.642;23.310;2023-10-19T12:23:22;93757.91;;;17.43;64.87
28911;BME280;16028;42.642;23.310;2023-10-19T12:25:49;93763.63;;;17.54;63.44
28911;BME280;16028;42.642;23.310;2023-10-19T12:28:17;93772.03;;;17.70;61.76
28911;BME280;16028;42.642;23.310;2023-10-19T12:30:45;93764.53;;;17.67;61.10
28911;BME280;16028;42.642;23.310;2023-10-19T12:33:12;93755.47;;;17.76;66.29
28911;BME280;16028;42.642;23.310;2023-10-19T12:35:40;93746.44;;;18.05;67.61
28911;BME280;16028;42.642;23.310;2023-10-19T12:38:17;93740.00;;;18.27;65.83
28911;BME280;16028;42.642;23.310;2023-10-19T12:40:46;93737.97;;;18.42;65.31
28911;BME280;16028;42.642;23.310;2023-10-19T12:43:13;93735.78;;;18.59;64.32
28911;BME280;16028;42.642;23.310;2023-10-19T12:45:41;93738.19;;;18.87;62.71
28911;BME280;16028;42.642;23.310;2023-10-19T12:48:10;93735.16;;;18.96;62.26
28911;BME280;16028;42.642;23.310;2023-10-19T12:50:37;93724.16;;;19.13;62.28
28911;BME280;16028;42.642;23.310;2023-10-19T12:53:06;93719.69;;;19.26;60.14
28911;BME280;16028;42.642;23.310;2023-10-19T12:55:34;93736.09;;;19.28;56.69
28911;BME280;16028;42.642;23.310;2023-10-19T12:58:03;93732.88;;;19.20;58.15
28911;BME280;16028;42.642;23.310;2023-10-19T13:00:34;93737.91;;;19.28;55.98